Terminal Aerodrome Forecast
Issued by NWS

Home | Current Version | Previous Version | Text Only | Print | Product List | Glossary On
Versions: 1 2 3 4 5 6 7 8 9 10 11 12 13 14 15 16 17 18 19 20 21 22 23 24 25 26 27 28 29 30 31 32 33 34 35 36 37 38 39
000
FTPQ31 PGUM 300500
TAFPQ
TAF

PGRO 300539Z 3006/3106 18025G40KT 4SM SHRA SCT007 BKN025
      TEMPO 3006/3009 18035G50KT 1SM +SHRA SCT007 OVC015
     FM301100 20025G40KT 4SM SHRA SCT009 BKN025 OVC060
     FM301700 20020G35KT 6SM -SHRA SCT012 BKN030 BKN080=

USA.gov is the U.S. government's official web portal to all federal, state and local government web resources and services.